Time;durP1;ratioP1;P1;durP2;ratioP2;P2;SDS_P1;SDS_P2;PMS_P1;PMS_P2;Temp;Humidity;BMP_temperature;BMP_pressure;BME280_temperature;BME280_humidity;BME280_pressure;Samples;Min_cycle;Max_cycle;Signal;HPM_P1;HPM_P2
2023/07/27 00:01:16;;;;;;;3.27;3.00;;;25.00;47.10;;;;;;5017233;28;20415;-82
2023/07/27 00:03:44;;;;;;;3.50;3.23;;;25.00;47.00;;;;;;5018002;28;20448;-82
2023/07/27 00:06:12;;;;;;;3.27;3.00;;;24.90;46.90;;;;;;5015307;28;20506;-81
2023/07/27 00:08:42;;;;;;;3.60;3.27;;;24.90;46.90;;;;;;5012925;28;20540;-83
2023/07/27 00:11:10;;;;;;;4.00;3.70;;;24.90;46.90;;;;;;5012984;28;20456;-82
2023/07/27 00:13:37;;;;;;;3.80;3.40;;;24.90;46.90;;;;;;5016692;28;20427;-82
2023/07/27 00:16:05;;;;;;;3.67;3.13;;;24.90;46.90;;;;;;5017598;28;20510;-82
2023/07/27 00:18:35;;;;;;;3.53;3.23;;;24.80;46.70;;;;;;5015440;28;20526;-82
2023/07/27 00:21:04;;;;;;;3.53;3.17;;;24.80;46.80;;;;;;5018051;28;20621;-82
2023/07/27 00:23:31;;;;;;;3.80;3.20;;;24.80;46.70;;;;;;5018294;28;20467;-82
2023/07/27 00:26:00;;;;;;;3.67;3.10;;;24.80;46.80;;;;;;5018506;28;20407;-83
2023/07/27 00:28:28;;;;;;;2.90;2.70;;;24.80;46.80;;;;;;5018600;28;20484;-82
2023/07/27 00:30:56;;;;;;;3.57;3.27;;;24.70;46.60;;;;;;5016954;28;20466;-83
2023/07/27 00:33:24;;;;;;;3.30;2.70;;;24.70;46.60;;;;;;5017382;28;20418;-81
2023/07/27 00:35:55;;;;;;;5.03;3.20;;;24.70;46.50;;;;;;5018003;28;20514;-83
2023/07/27 00:38:23;;;;;;;3.17;2.97;;;24.60;46.50;;;;;;5017805;28;20500;-83
2023/07/27 00:40:51;;;;;;;3.20;2.90;;;24.60;46.50;;;;;;5017584;28;20471;-83
2023/07/27 00:43:21;;;;;;;3.00;2.80;;;24.60;46.50;;;;;;5017597;28;20423;-83
2023/07/27 00:45:49;;;;;;;4.57;3.60;;;24.60;46.30;;;;;;5017556;28;20472;-82
2023/07/27 00:48:17;;;;;;;3.37;3.07;;;24.60;46.50;;;;;;5016289;28;20506;-82
2023/07/27 00:50:45;;;;;;;4.40;3.20;;;24.60;46.50;;;;;;5016882;28;20458;-82
2023/07/27 00:53:13;;;;;;;3.20;2.90;;;24.50;46.40;;;;;;5016348;28;20440;-82
2023/07/27 00:55:41;;;;;;;2.90;2.70;;;24.50;46.30;;;;;;5017405;28;20506;-82
2023/07/27 00:58:09;;;;;;;9.97;2.83;;;24.50;46.30;;;;;;5017606;28;21034;-82
2023/07/27 01:00:38;;;;;;;3.37;3.10;;;24.50;46.40;;;;;;5016815;28;20530;-81
2023/07/27 01:03:06;;;;;;;6.20;2.90;;;24.50;46.30;;;;;;5016771;28;20473;-82
2023/07/27 01:05:34;;;;;;;3.47;3.17;;;24.50;46.20;;;;;;5015057;28;20456;-81
2023/07/27 01:08:02;;;;;;;4.13;3.73;;;24.40;46.20;;;;;;5016994;28;20537;-82
2023/07/27 01:10:41;;;;;;;11.77;8.90;;;24.40;46.30;;;;;;5017182;28;20417;-82
2023/07/27 01:13:11;;;;;;;14.97;11.33;;;24.40;46.10;;;;;;5016541;28;20501;-82
2023/07/27 01:15:44;;;;;;;14.17;9.80;;;24.40;46.30;;;;;;5016458;28;20454;-83
2023/07/27 01:18:15;;;;;;;16.93;12.23;;;24.40;46.10;;;;;;5017612;28;20431;-82
2023/07/27 01:20:47;;;;;;;19.93;14.40;;;24.40;46.20;;;;;;5016666;28;20430;-83
2023/07/27 01:23:31;;;;;;;20.40;14.53;;;24.40;46.10;;;;;;5018047;28;20808;-82
2023/07/27 01:26:13;;;;;;;20.60;15.27;;;24.30;46.20;;;;;;5017395;28;20407;-82
2023/07/27 01:28:48;;;;;;;24.73;15.90;;;24.40;46.20;;;;;;5010178;28;20465;-82
2023/07/27 01:31:19;;;;;;;22.80;16.63;;;24.30;46.20;;;;;;5016961;28;20446;-82
2023/07/27 01:34:00;;;;;;;24.57;17.40;;;24.30;46.10;;;;;;5016802;28;20502;-83
2023/07/27 01:36:28;;;;;;;27.30;17.97;;;24.30;46.10;;;;;;5017007;28;20406;-82
2023/07/27 01:38:58;;;;;;;26.17;17.97;;;24.30;46.00;;;;;;5015925;28;20499;-82
2023/07/27 01:41:27;;;;;;;26.73;18.80;;;24.30;46.00;;;;;;5015549;28;20507;-82
2023/07/27 01:43:54;;;;;;;28.03;19.07;;;24.30;46.10;;;;;;5016310;28;20427;-83
2023/07/27 01:46:24;;;;;;;26.67;19.10;;;24.30;46.10;;;;;;5016409;28;20461;-82
2023/07/27 01:48:52;;;;;;;26.70;18.80;;;24.30;46.10;;;;;;5015366;28;20453;-82
2023/07/27 01:51:20;;;;;;;27.00;18.90;;;24.30;46.10;;;;;;5016771;28;20452;-82
2023/07/27 01:53:48;;;;;;;29.13;19.80;;;24.20;46.10;;;;;;5017026;28;20419;-83
2023/07/27 01:56:16;;;;;;;27.73;19.80;;;24.20;46.00;;;;;;5016200;28;20421;-82
2023/07/27 01:58:44;;;;;;;29.00;19.70;;;24.20;46.20;;;;;;5017670;28;20539;-83
2023/07/27 02:01:12;;;;;;;27.40;19.30;;;24.20;46.00;;;;;;5017251;28;20456;-83
2023/07/27 02:03:41;;;;;;;25.83;19.13;;;24.20;46.00;;;;;;5018212;28;20426;-83
2023/07/27 02:06:09;;;;;;;26.87;19.23;;;24.20;46.20;;;;;;5018373;28;20476;-83
2023/07/27 02:08:37;;;;;;;26.70;18.67;;;24.20;46.30;;;;;;5018013;28;20562;-83
2023/07/27 02:11:05;;;;;;;23.50;17.67;;;24.20;46.20;;;;;;5018523;28;20415;-81
2023/07/27 02:13:36;;;;;;;24.70;18.13;;;24.20;46.20;;;;;;5017761;28;20411;-83
2023/07/27 02:16:08;;;;;;;22.97;17.00;;;24.10;46.10;;;;;;5018970;28;20470;-83
2023/07/27 02:18:36;;;;;;;24.50;18.40;;;24.20;46.10;;;;;;5018774;28;20438;-84
2023/07/27 02:21:06;;;;;;;23.70;17.17;;;24.20;46.30;;;;;;5018411;28;20450;-83
2023/07/27 02:23:34;;;;;;;24.70;17.80;;;24.20;46.30;;;;;;5017941;28;20467;-83
2023/07/27 02:26:02;;;;;;;23.40;17.20;;;24.20;46.20;;;;;;5017441;28;20546;-83
2023/07/27 02:28:30;;;;;;;21.27;15.53;;;24.20;46.20;;;;;;5016701;28;20588;-83
2023/07/27 02:30:58;;;;;;;21.50;15.57;;;24.20;46.20;;;;;;5016421;28;20449;-82
2023/07/27 02:33:26;;;;;;;23.60;17.00;;;24.10;46.20;;;;;;5017124;28;20455;-83
2023/07/27 02:35:55;;;;;;;19.60;15.30;;;24.10;46.10;;;;;;5017515;28;20511;-82
2023/07/27 02:38:24;;;;;;;18.90;14.40;;;24.10;46.20;;;;;;5016667;28;20504;-82
2023/07/27 02:40:53;;;;;;;19.90;15.10;;;24.20;46.20;;;;;;5016761;28;20475;-82
2023/07/27 02:43:23;;;;;;;18.33;14.47;;;24.10;46.10;;;;;;5016044;28;20463;-81
2023/07/27 02:45:51;;;;;;;18.97;14.53;;;24.10;46.30;;;;;;5016693;28;20498;-83
2023/07/27 02:48:19;;;;;;;21.50;14.67;;;24.10;46.40;;;;;;5016980;28;20464;-82
2023/07/27 02:50:50;;;;;;;18.73;13.90;;;24.10;46.30;;;;;;5016466;28;20504;-82
2023/07/27 02:53:18;;;;;;;18.63;14.23;;;24.10;46.10;;;;;;5016271;28;20436;-82
2023/07/27 02:55:57;;;;;;;16.13;12.80;;;24.10;46.20;;;;;;5016687;28;20483;-83
2023/07/27 02:58:25;;;;;;;16.93;12.60;;;24.10;46.20;;;;;;5016962;28;20446;-82
2023/07/27 03:00:54;;;;;;;17.53;12.67;;;24.10;46.20;;;;;;5014406;28;20551;-82
2023/07/27 03:03:22;;;;;;;16.67;12.00;;;24.10;46.20;;;;;;5011141;28;20444;-82
2023/07/27 03:05:57;;;;;;;15.43;11.13;;;24.10;46.20;;;;;;5015745;28;20419;-82
2023/07/27 03:08:25;;;;;;;14.00;10.90;;;24.10;46.20;;;;;;5015423;28;20483;-82
2023/07/27 03:10:54;;;;;;;14.50;10.67;;;24.00;46.00;;;;;;5015936;28;20415;-83
2023/07/27 03:13:23;;;;;;;14.93;10.30;;;24.00;46.30;;;;;;5015292;28;20490;-82
2023/07/27 03:15:51;;;;;;;12.77;9.97;;;24.00;46.20;;;;;;5013954;28;20427;-83
2023/07/27 03:18:19;;;;;;;14.90;10.70;;;24.00;46.00;;;;;;5014198;28;20442;-82
2023/07/27 03:20:47;;;;;;;13.47;10.50;;;24.00;46.40;;;;;;5014633;28;20468;-82
2023/07/27 03:23:16;;;;;;;11.60;9.70;;;23.90;46.00;;;;;;5018235;28;20411;-82
2023/07/27 03:25:43;;;;;;;12.03;9.87;;;24.00;46.20;;;;;;5019272;28;20440;-82
2023/07/27 03:28:11;;;;;;;14.47;10.50;;;24.00;46.20;;;;;;5019448;28;20559;-82
2023/07/27 03:30:40;;;;;;;10.87;9.37;;;24.00;46.20;;;;;;5018391;28;20482;-82
2023/07/27 03:33:08;;;;;;;10.57;8.47;;;24.00;45.90;;;;;;5009459;28;20431;-82
2023/07/27 03:35:36;;;;;;;11.53;8.03;;;24.00;46.30;;;;;;5018882;28;20539;-83
2023/07/27 03:38:04;;;;;;;10.27;8.37;;;24.00;46.20;;;;;;5019884;28;20474;-83
2023/07/27 03:40:32;;;;;;;11.50;8.70;;;24.00;46.30;;;;;;5019967;28;20502;-82
2023/07/27 03:43:00;;;;;;;11.03;7.70;;;24.00;46.30;;;;;;5019422;28;20428;-82
2023/07/27 03:45:28;;;;;;;9.00;8.10;;;24.00;46.00;;;;;;5018978;28;20511;-83
2023/07/27 03:47:57;;;;;;;9.53;8.13;;;24.00;46.20;;;;;;5019574;28;20494;-82
2023/07/27 03:50:25;;;;;;;10.90;8.40;;;24.00;46.20;;;;;;5017704;28;20476;-82
2023/07/27 03:52:53;;;;;;;8.87;7.87;;;24.00;46.10;;;;;;5014888;28;20426;-82
2023/07/27 03:55:21;;;;;;;8.37;7.50;;;23.90;46.00;;;;;;5018586;28;20440;-83
2023/07/27 03:57:50;;;;;;;7.93;7.13;;;24.00;46.10;;;;;;5018613;28;20563;-82
2023/07/27 04:00:18;;;;;;;8.13;7.00;;;23.90;46.00;;;;;;5019410;28;20506;-83
2023/07/27 04:02:46;;;;;;;8.30;7.20;;;23.90;46.00;;;;;;5014361;28;20464;-82
2023/07/27 04:05:16;;;;;;;8.70;7.17;;;23.90;46.00;;;;;;5018382;28;20459;-82
2023/07/27 04:07:43;;;;;;;7.40;6.60;;;23.90;46.00;;;;;;5010062;28;20480;-82
2023/07/27 04:10:11;;;;;;;9.17;7.50;;;24.00;46.20;;;;;;5014926;28;20567;-82
2023/07/27 04:12:40;;;;;;;9.03;6.93;;;24.00;45.80;;;;;;5017867;28;20448;-82
2023/07/27 04:15:09;;;;;;;8.27;6.87;;;23.90;46.00;;;;;;5018997;28;20419;-82
2023/07/27 04:17:37;;;;;;;7.70;6.67;;;23.90;46.00;;;;;;5018916;28;20431;-81
2023/07/27 04:20:07;;;;;;;8.07;6.53;;;23.90;46.00;;;;;;5018764;28;20436;-82
2023/07/27 04:22:36;;;;;;;6.50;5.87;;;24.00;46.00;;;;;;5018029;28;20527;-82
2023/07/27 04:25:05;;;;;;;6.33;5.73;;;23.90;45.80;;;;;;5017553;28;20464;-82
2023/07/27 04:27:33;;;;;;;7.23;5.77;;;23.90;45.90;;;;;;5016116;28;20570;-83
2023/07/27 04:30:00;;;;;;;6.30;5.70;;;23.90;45.60;;;;;;5018200;28;20537;-83
2023/07/27 04:32:29;;;;;;;6.50;5.83;;;23.90;45.80;;;;;;5014240;28;20698;-83
2023/07/27 04:34:58;;;;;;;6.00;5.40;;;23.90;45.90;;;;;;5017570;28;20436;-83
2023/07/27 04:37:26;;;;;;;7.80;6.20;;;24.00;45.70;;;;;;5017238;28;20559;-82
2023/07/27 04:39:55;;;;;;;5.93;5.33;;;23.90;46.00;;;;;;5010581;28;20532;-83
2023/07/27 04:42:23;;;;;;;6.03;5.50;;;23.90;45.60;;;;;;5013549;28;20442;-82
2023/07/27 04:44:51;;;;;;;9.83;6.00;;;24.00;45.90;;;;;;5011414;28;20423;-83
2023/07/27 04:47:19;;;;;;;5.23;4.50;;;24.00;45.80;;;;;;5017662;28;20511;-82
2023/07/27 04:49:47;;;;;;;5.17;4.67;;;24.00;45.70;;;;;;5017213;28;21081;-82
2023/07/27 04:52:15;;;;;;;5.80;5.20;;;24.00;45.70;;;;;;5011656;28;20456;-82
2023/07/27 04:54:43;;;;;;;6.40;5.10;;;24.00;45.60;;;;;;5017991;28;20426;-83
2023/07/27 04:57:12;;;;;;;6.03;5.33;;;24.00;45.60;;;;;;5017906;28;20523;-83
2023/07/27 04:59:40;;;;;;;5.60;5.10;;;24.00;45.60;;;;;;5010361;28;20501;-83
2023/07/27 05:02:08;;;;;;;5.47;4.97;;;24.00;45.60;;;;;;5017611;28;20411;-83
2023/07/27 05:04:36;;;;;;;6.87;5.30;;;24.00;45.80;;;;;;5016802;28;20490;-82
2023/07/27 05:07:05;;;;;;;6.33;5.30;;;24.00;45.70;;;;;;5017645;28;20444;-82
2023/07/27 05:09:32;;;;;;;7.80;5.13;;;24.00;46.00;;;;;;5018779;28;20491;-82
2023/07/27 05:12:01;;;;;;;5.83;5.23;;;24.00;45.90;;;;;;5017297;28;20436;-83
2023/07/27 05:14:30;;;;;;;5.90;4.97;;;24.00;46.00;;;;;;5017269;28;20507;-83
2023/07/27 05:16:58;;;;;;;4.60;4.20;;;24.00;46.10;;;;;;5016934;28;20514;-83
2023/07/27 05:19:26;;;;;;;4.93;4.43;;;24.00;46.20;;;;;;5011318;28;20475;-83
2023/07/27 05:21:54;;;;;;;5.20;3.87;;;24.00;46.20;;;;;;5012994;28;20516;-83
2023/07/27 05:24:21;;;;;;;5.23;4.33;;;23.90;46.30;;;;;;5016779;28;20543;-82
2023/07/27 05:26:49;;;;;;;4.87;4.43;;;23.90;46.60;;;;;;5016614;28;20436;-82
2023/07/27 05:29:17;;;;;;;5.10;4.27;;;24.00;46.50;;;;;;5017359;28;20535;-82
2023/07/27 05:31:47;;;;;;;9.90;4.53;;;24.00;46.70;;;;;;5017350;28;20515;-83
2023/07/27 05:34:15;;;;;;;8.83;4.27;;;24.00;46.70;;;;;;5017324;28;20455;-83
2023/07/27 05:36:42;;;;;;;6.83;4.70;;;24.10;46.70;;;;;;5017349;28;20450;-82
2023/07/27 05:39:10;;;;;;;5.10;4.40;;;24.00;46.60;;;;;;5016812;28;20990;-83
2023/07/27 05:41:38;;;;;;;5.57;4.57;;;24.10;46.80;;;;;;5017717;28;20501;-82
2023/07/27 05:44:06;;;;;;;6.03;4.27;;;24.10;46.70;;;;;;5017637;28;20443;-82
2023/07/27 05:46:34;;;;;;;4.50;4.10;;;24.10;46.90;;;;;;5018701;28;20479;-82
2023/07/27 05:49:04;;;;;;;5.37;4.50;;;24.10;46.90;;;;;;5017122;28;20470;-82
2023/07/27 05:51:33;;;;;;;4.70;4.17;;;24.10;47.00;;;;;;5012763;28;20468;-83
2023/07/27 05:54:02;;;;;;;4.90;4.40;;;24.10;47.40;;;;;;5019679;28;20500;-82
2023/07/27 05:56:29;;;;;;;4.43;4.00;;;24.10;47.20;;;;;;5017384;28;20484;-82
2023/07/27 05:58:57;;;;;;;4.23;3.83;;;24.10;47.30;;;;;;5016629;28;20491;-82
2023/07/27 06:01:25;;;;;;;4.33;3.93;;;24.10;47.50;;;;;;5017404;28;20423;-82
2023/07/27 06:03:54;;;;;;;7.03;3.83;;;24.10;47.60;;;;;;5018055;28;20432;-82
2023/07/27 06:06:29;;;;;;;5.00;3.83;;;24.00;47.60;;;;;;5018573;28;20834;-82
2023/07/27 06:08:58;;;;;;;5.90;4.10;;;24.10;47.80;;;;;;5020872;28;20492;-82
2023/07/27 06:11:26;;;;;;;5.00;4.30;;;24.00;47.60;;;;;;5018589;28;21072;-82
2023/07/27 06:13:54;;;;;;;5.13;3.97;;;24.00;47.80;;;;;;5019255;28;20491;-82
2023/07/27 06:16:22;;;;;;;4.37;3.97;;;24.00;47.80;;;;;;5021459;28;20527;-82
2023/07/27 06:18:50;;;;;;;6.00;3.60;;;24.00;48.00;;;;;;5020878;28;20468;-82
2023/07/27 06:21:18;;;;;;;3.73;3.43;;;23.90;47.80;;;;;;5020440;28;20450;-83
2023/07/27 06:23:47;;;;;;;4.17;3.87;;;24.00;48.00;;;;;;5021005;28;20475;-83
2023/07/27 06:26:15;;;;;;;3.80;3.50;;;24.00;47.80;;;;;;5022203;28;20471;-81
2023/07/27 06:28:43;;;;;;;4.33;3.50;;;24.00;48.00;;;;;;5018844;28;20449;-82
2023/07/27 06:31:11;;;;;;;3.93;3.53;;;24.00;47.80;;;;;;5020027;28;20475;-83
2023/07/27 06:33:42;;;;;;;3.90;3.60;;;24.00;48.00;;;;;;5021530;28;20518;-82
2023/07/27 06:36:12;;;;;;;3.63;3.40;;;23.90;48.50;;;;;;5021551;28;20438;-82
2023/07/27 06:38:41;;;;;;;3.93;3.57;;;24.00;48.00;;;;;;5020251;28;20502;-83
2023/07/27 06:41:11;;;;;;;3.43;3.23;;;24.00;48.00;;;;;;5020324;28;20440;-83
2023/07/27 06:43:39;;;;;;;3.83;3.37;;;24.00;47.80;;;;;;5020664;28;20449;-82
2023/07/27 06:46:12;;;;;;;3.53;3.23;;;24.10;47.90;;;;;;5020327;28;20433;-82
2023/07/27 06:48:40;;;;;;;3.30;3.10;;;24.10;47.80;;;;;;5018026;28;20466;-82
2023/07/27 06:51:08;;;;;;;3.40;3.20;;;24.10;47.90;;;;;;5022545;28;20449;-82
2023/07/27 06:53:37;;;;;;;3.30;3.03;;;24.10;47.90;;;;;;5020558;28;20448;-83
2023/07/27 06:56:05;;;;;;;3.30;3.00;;;24.10;48.00;;;;;;5017186;28;20451;-83
2023/07/27 06:58:35;;;;;;;3.57;3.27;;;24.10;47.80;;;;;;5026926;28;20463;-82
2023/07/27 07:01:03;;;;;;;3.67;3.37;;;24.10;47.90;;;;;;5023222;28;20455;-82
2023/07/27 07:03:32;;;;;;;3.40;3.20;;;24.10;48.20;;;;;;5026747;28;20476;-82
2023/07/27 07:06:00;;;;;;;3.47;3.20;;;24.10;47.90;;;;;;5026367;28;20512;-82
2023/07/27 07:08:29;;;;;;;3.73;2.90;;;24.10;48.20;;;;;;5026004;28;20472;-82
2023/07/27 07:10:58;;;;;;;3.27;3.03;;;24.10;48.00;;;;;;5027461;28;20472;-83
2023/07/27 07:13:29;;;;;;;3.80;3.13;;;24.20;48.10;;;;;;5029262;28;20432;-79
2023/07/27 07:15:59;;;;;;;3.37;3.07;;;24.20;48.20;;;;;;5027886;28;20499;-82
2023/07/27 07:18:27;;;;;;;3.60;3.27;;;24.20;48.00;;;;;;5029947;28;20430;-82
2023/07/27 07:20:56;;;;;;;3.63;3.30;;;24.20;48.00;;;;;;5032388;28;20440;-82
2023/07/27 07:23:24;;;;;;;4.50;3.50;;;24.20;48.00;;;;;;5033955;28;20476;-82
2023/07/27 07:25:52;;;;;;;3.30;3.10;;;24.10;48.10;;;;;;5034628;28;20439;-81
2023/07/27 07:28:21;;;;;;;3.80;3.30;;;24.20;48.10;;;;;;5033896;28;20481;-81
2023/07/27 07:30:49;;;;;;;4.60;3.83;;;24.20;48.20;;;;;;5035015;28;20435;-81
2023/07/27 07:33:22;;;;;;;3.17;2.90;;;24.20;48.10;;;;;;5031551;28;20432;-80
2023/07/27 07:35:51;;;;;;;3.37;3.07;;;24.20;48.10;;;;;;5025627;28;20453;-80
2023/07/27 07:38:19;;;;;;;4.00;3.70;;;24.20;48.20;;;;;;5020359;28;20489;-80
2023/07/27 07:40:47;;;;;;;4.53;2.93;;;24.20;48.10;;;;;;5022454;28;20471;-81
2023/07/27 07:43:18;;;;;;;3.70;3.40;;;24.30;48.10;;;;;;5023882;28;20440;-81
2023/07/27 07:45:48;;;;;;;3.47;3.20;;;24.30;48.40;;;;;;5020490;28;20405;-80
2023/07/27 07:48:22;;;;;;;3.60;3.30;;;24.30;48.10;;;;;;5024322;28;20462;-82
2023/07/27 07:50:52;;;;;;;3.20;3.00;;;24.40;48.20;;;;;;5023362;28;20415;-83
2023/07/27 07:53:20;;;;;;;3.80;3.50;;;24.40;48.00;;;;;;5024599;28;20415;-83
2023/07/27 07:56:00;;;;;;;4.37;2.90;;;24.50;48.10;;;;;;5022947;28;20428;-83
2023/07/27 07:58:29;;;;;;;4.20;3.13;;;24.60;48.00;;;;;;5021623;28;20495;-82
2023/07/27 08:00:57;;;;;;;3.70;3.40;;;24.60;48.00;;;;;;5014795;28;20507;-82
2023/07/27 08:03:24;;;;;;;3.50;3.30;;;24.60;48.10;;;;;;5013930;28;20408;-80
2023/07/27 08:05:54;;;;;;;3.20;2.93;;;24.70;48.10;;;;;;5011670;28;20414;-79
2023/07/27 08:08:22;;;;;;;5.03;3.50;;;24.80;48.10;;;;;;5014068;28;20482;-80
2023/07/27 08:10:50;;;;;;;4.00;3.60;;;24.80;48.30;;;;;;5018800;28;20444;-80
2023/07/27 08:13:19;;;;;;;3.57;3.33;;;24.80;48.30;;;;;;5012003;28;20447;-80
2023/07/27 08:15:51;;;;;;;3.90;2.50;;;24.90;48.10;;;;;;5016326;28;20431;-80
2023/07/27 08:18:21;;;;;;;7.07;3.70;;;24.90;48.20;;;;;;5014719;28;20439;-81
2023/07/27 08:20:59;;;;;;;3.40;3.13;;;24.80;48.30;;;;;;5014914;28;20448;-81
2023/07/27 08:23:28;;;;;;;3.43;3.13;;;24.80;48.30;;;;;;5014875;28;20512;-79
2023/07/27 08:25:56;;;;;;;3.83;3.47;;;24.80;48.40;;;;;;5010037;28;20420;-80
2023/07/27 08:28:24;;;;;;;6.90;3.20;;;24.80;48.50;;;;;;5012478;28;20447;-80
2023/07/27 08:30:52;;;;;;;3.47;3.17;;;24.80;48.70;;;;;;5014329;28;20547;-80
2023/07/27 08:33:21;;;;;;;3.53;3.23;;;24.80;49.00;;;;;;5007722;28;20555;-79
2023/07/27 08:35:49;;;;;;;3.33;3.03;;;24.80;48.80;;;;;;5013516;28;20446;-79
2023/07/27 08:38:18;;;;;;;3.80;3.40;;;24.80;49.00;;;;;;5013252;28;20542;-78
2023/07/27 08:40:53;;;;;;;3.80;3.00;;;24.80;49.20;;;;;;5012939;28;20464;-78
2023/07/27 08:43:22;;;;;;;3.07;2.87;;;24.80;49.50;;;;;;5012536;28;20498;-78
2023/07/27 08:45:49;;;;;;;6.63;3.63;;;24.80;49.40;;;;;;5013224;28;20407;-80
2023/07/27 08:48:18;;;;;;;5.00;3.97;;;24.70;49.50;;;;;;5013183;28;20439;-79
2023/07/27 08:50:47;;;;;;;4.00;3.70;;;24.70;49.80;;;;;;5012995;28;20475;-79
2023/07/27 08:53:15;;;;;;;3.90;3.60;;;24.70;49.80;;;;;;5009777;28;20526;-80
2023/07/27 08:55:45;;;;;;;4.53;3.80;;;24.70;50.50;;;;;;5013208;28;20447;-79
2023/07/27 08:58:12;;;;;;;4.50;4.10;;;24.80;50.10;;;;;;5012585;28;20489;-79
2023/07/27 09:00:41;;;;;;;3.67;3.20;;;24.80;50.00;;;;;;5013418;28;20415;-80
2023/07/27 09:03:09;;;;;;;4.00;3.70;;;24.80;50.20;;;;;;5012500;28;20456;-79
2023/07/27 09:05:38;;;;;;;3.53;3.33;;;24.80;50.20;;;;;;5013124;28;20447;-79
2023/07/27 09:08:07;;;;;;;3.30;3.10;;;24.90;50.40;;;;;;5012471;28;20543;-79
2023/07/27 09:10:36;;;;;;;3.40;3.10;;;25.00;50.00;;;;;;5011333;28;20435;-79
2023/07/27 09:13:05;;;;;;;3.80;3.43;;;25.00;50.00;;;;;;5013678;28;20447;-80
2023/07/27 09:15:33;;;;;;;3.97;3.63;;;25.00;49.90;;;;;;5008331;28;20511;-79
2023/07/27 09:18:02;;;;;;;4.30;3.47;;;25.00;49.90;;;;;;5012290;28;20534;-79
2023/07/27 09:20:31;;;;;;;3.53;3.30;;;25.00;50.10;;;;;;5012077;28;20451;-80
2023/07/27 09:22:59;;;;;;;3.40;3.20;;;25.10;50.00;;;;;;5013450;28;20411;-80
2023/07/27 09:25:27;;;;;;;4.33;3.50;;;25.10;50.10;;;;;;5013902;28;20901;-80
2023/07/27 09:27:56;;;;;;;3.57;3.27;;;25.10;50.20;;;;;;5012017;28;20567;-80
2023/07/27 09:30:26;;;;;;;5.37;4.23;;;25.10;50.10;;;;;;5013387;28;20454;-80
2023/07/27 09:32:54;;;;;;;3.83;3.53;;;25.10;50.30;;;;;;5014902;28;20457;-81
2023/07/27 09:35:25;;;;;;;5.23;3.60;;;25.10;50.20;;;;;;5026311;28;20443;-79
2023/07/27 09:37:54;;;;;;;3.50;3.30;;;25.10;50.40;;;;;;5028021;28;20439;-80
2023/07/27 09:40:27;;;;;;;4.10;3.07;;;25.00;50.30;;;;;;5020983;28;20432;-80
2023/07/27 09:43:09;;;;;;;4.00;3.60;;;25.10;50.30;;;;;;5029505;28;20503;-80
2023/07/27 09:45:38;;;;;;;9.27;3.13;;;25.10;50.50;;;;;;5026863;28;20478;-82
2023/07/27 09:48:07;;;;;;;3.47;3.27;;;25.10;50.20;;;;;;5028393;28;20515;-82
2023/07/27 09:50:35;;;;;;;4.20;3.37;;;25.20;50.50;;;;;;5027121;28;20503;-82
2023/07/27 09:53:05;;;;;;;3.20;3.00;;;25.20;50.40;;;;;;5026404;28;20447;-82
2023/07/27 09:55:33;;;;;;;3.90;3.60;;;25.30;50.40;;;;;;5026899;28;20446;-81
2023/07/27 09:58:01;;;;;;;3.10;2.90;;;25.30;50.30;;;;;;5027242;28;20445;-82
2023/07/27 10:00:29;;;;;;;5.20;3.77;;;25.30;50.40;;;;;;5026525;28;20473;-81
2023/07/27 10:02:59;;;;;;;3.93;3.63;;;25.40;50.40;;;;;;5027422;28;20414;-79
2023/07/27 10:05:38;;;;;;;3.33;3.03;;;25.40;50.50;;;;;;5027045;28;20415;-82
2023/07/27 10:08:07;;;;;;;3.70;3.40;;;25.40;50.70;;;;;;5026397;28;20461;-82
2023/07/27 10:10:39;;;;;;;3.30;3.10;;;25.40;50.80;;;;;;5027398;28;20407;-82
2023/07/27 10:13:11;;;;;;;4.67;3.67;;;25.40;50.70;;;;;;5027141;28;20823;-81
2023/07/27 10:15:41;;;;;;;3.97;3.50;;;25.30;50.70;;;;;;5027008;28;20442;-82
2023/07/27 10:18:12;;;;;;;3.60;3.30;;;25.30;50.80;;;;;;5027152;28;20477;-81
2023/07/27 10:20:41;;;;;;;4.30;3.90;;;25.30;51.20;;;;;;5025431;28;20450;-81
2023/07/27 10:23:10;;;;;;;3.50;3.20;;;25.40;50.90;;;;;;5027161;28;20441;-82
2023/07/27 10:26:01;;;;;;;4.20;3.90;;;25.40;51.00;;;;;;5027259;28;20444;-82
2023/07/27 10:28:33;;;;;;;5.13;3.70;;;25.40;51.20;;;;;;5019914;28;20469;-82
2023/07/27 10:31:19;;;;;;;3.97;3.53;;;25.40;51.20;;;;;;5026586;28;20418;-81
2023/07/27 10:33:48;;;;;;;4.50;4.10;;;25.40;51.40;;;;;;5026968;28;20446;-81
2023/07/27 10:37:04;;;;;;;4.00;3.70;;;25.40;51.50;;;;;;5026186;28;20433;-81
2023/07/27 10:39:34;;;;;;;4.80;4.40;;;25.40;51.50;;;;;;5019982;28;20422;-82
2023/07/27 10:42:06;;;;;;;4.07;3.80;;;25.40;51.50;;;;;;5026814;28;20449;-82
2023/07/27 10:44:44;;;;;;;5.37;4.17;;;25.40;51.40;;;;;;5026362;28;20455;-81
2023/07/27 10:47:16;;;;;;;4.60;4.20;;;25.40;51.40;;;;;;5027381;28;20473;-81
2023/07/27 10:49:46;;;;;;;4.40;4.07;;;25.40;51.30;;;;;;5027256;28;20434;-81
2023/07/27 10:52:16;;;;;;;4.90;4.40;;;25.40;51.40;;;;;;5026757;28;20450;-80
2023/07/27 10:54:44;;;;;;;4.73;3.90;;;25.40;51.40;;;;;;5027912;28;20462;-81
2023/07/27 10:57:12;;;;;;;3.70;3.50;;;25.40;51.60;;;;;;5027318;28;20426;-81
2023/07/27 10:59:42;;;;;;;4.30;4.00;;;25.40;51.30;;;;;;5027878;28;20439;-81
2023/07/27 11:02:15;;;;;;;7.70;3.90;;;25.50;51.50;;;;;;5027766;28;20410;-81
2023/07/27 11:04:45;;;;;;;7.30;3.47;;;25.50;51.60;;;;;;5028719;28;20448;-81
2023/07/27 11:07:14;;;;;;;4.23;3.70;;;25.50;51.60;;;;;;5028157;28;20418;-81
2023/07/27 11:09:47;;;;;;;3.73;3.53;;;25.50;51.80;;;;;;5027943;28;20448;-81
2023/07/27 11:12:18;;;;;;;4.57;3.30;;;25.50;51.80;;;;;;5026795;28;20475;-81
2023/07/27 11:15:14;;;;;;;3.27;3.17;;;25.40;52.00;;;;;;5026918;28;20474;-83
2023/07/27 11:17:43;;;;;;;3.40;3.20;;;25.50;52.20;;;;;;5027096;28;20442;-81
2023/07/27 11:20:13;;;;;;;3.80;3.50;;;25.40;52.20;;;;;;5026876;28;20452;-80
2023/07/27 11:22:41;;;;;;;4.30;4.00;;;25.50;52.30;;;;;;5027473;28;20414;-82
2023/07/27 11:25:10;;;;;;;3.60;3.30;;;25.50;52.20;;;;;;5026759;28;20424;-81
2023/07/27 11:27:38;;;;;;;5.60;3.40;;;25.60;52.30;;;;;;5027144;28;20435;-82
2023/07/27 11:30:10;;;;;;;3.30;3.10;;;25.70;52.10;;;;;;5025589;28;20423;-81
2023/07/27 11:32:38;;;;;;;3.03;2.93;;;25.70;52.00;;;;;;5026861;28;20482;-81
2023/07/27 11:35:07;;;;;;;3.37;3.17;;;25.80;52.00;;;;;;5025801;28;20469;-81
2023/07/27 11:37:38;;;;;;;3.90;3.53;;;25.80;51.80;;;;;;5026554;28;20475;-81
2023/07/27 11:40:17;;;;;;;3.27;3.07;;;25.80;51.80;;;;;;5025895;28;20448;-80
2023/07/27 11:42:45;;;;;;;3.53;3.13;;;25.80;51.90;;;;;;5026697;28;20427;-81
2023/07/27 11:45:14;;;;;;;3.03;2.70;;;25.80;51.80;;;;;;5028833;28;20419;-84
2023/07/27 11:47:42;;;;;;;2.87;2.77;;;25.80;52.00;;;;;;5025333;28;20499;-82
2023/07/27 11:50:12;;;;;;;2.60;2.50;;;25.70;51.80;;;;;;5025387;28;20448;-81
2023/07/27 11:52:41;;;;;;;3.40;2.40;;;25.70;52.00;;;;;;5016853;28;20431;-82
2023/07/27 11:55:09;;;;;;;2.60;2.50;;;25.70;52.00;;;;;;5024950;28;20619;-81
2023/07/27 11:57:38;;;;;;;2.97;2.80;;;25.70;52.10;;;;;;5027357;28;20457;-81
2023/07/27 12:00:12;;;;;;;3.43;3.00;;;25.70;52.20;;;;;;5027230;28;20446;-81
2023/07/27 12:02:41;;;;;;;3.00;2.80;;;25.70;52.20;;;;;;5027674;28;20421;-81
2023/07/27 12:05:12;;;;;;;2.70;2.60;;;25.70;52.30;;;;;;5021163;28;20487;-79
2023/07/27 12:07:42;;;;;;;2.63;2.53;;;25.70;52.10;;;;;;5022049;28;20468;-81
2023/07/27 12:10:13;;;;;;;2.60;2.40;;;25.70;52.20;;;;;;5024961;28;20423;-82
2023/07/27 12:12:48;;;;;;;2.67;2.47;;;25.70;52.30;;;;;;5024733;28;20461;-81
2023/07/27 12:15:27;;;;;;;2.63;2.53;;;25.70;52.20;;;;;;5019995;28;20469;-80
2023/07/27 12:17:56;;;;;;;2.67;2.57;;;25.70;52.20;;;;;;5023462;28;20446;-82
2023/07/27 12:20:24;;;;;;;2.93;2.80;;;25.70;52.10;;;;;;5021227;28;20458;-82
2023/07/27 12:23:14;;;;;;;2.57;2.47;;;25.70;52.50;;;;;;5023490;28;20444;-82
2023/07/27 12:25:45;;;;;;;2.50;2.40;;;25.70;52.20;;;;;;5023297;28;20455;-81
2023/07/27 12:28:13;;;;;;;2.90;2.70;;;25.70;52.40;;;;;;5022317;28;20464;-81
2023/07/27 12:30:45;;;;;;;2.50;2.40;;;25.70;52.30;;;;;;5022370;28;20456;-82
2023/07/27 12:33:13;;;;;;;2.77;2.57;;;25.70;52.30;;;;;;5025194;28;20473;-81
2023/07/27 12:35:41;;;;;;;2.90;2.80;;;25.70;52.40;;;;;;5025966;28;20454;-80
2023/07/27 12:38:09;;;;;;;3.13;2.93;;;25.70;52.40;;;;;;5025894;28;20427;-81
2023/07/27 12:40:42;;;;;;;3.73;3.43;;;25.70;53.00;;;;;;5025239;28;20458;-81
2023/07/27 12:43:13;;;;;;;3.00;2.90;;;25.60;52.40;;;;;;5026637;28;20511;-83
2023/07/27 12:45:44;;;;;;;3.47;3.27;;;25.60;52.60;;;;;;5023970;28;20419;-83
2023/07/27 12:48:13;;;;;;;2.97;2.77;;;25.50;52.60;;;;;;5027332;28;20468;-80
2023/07/27 12:50:41;;;;;;;2.97;2.63;;;25.50;52.70;;;;;;5026666;28;20446;-81
2023/07/27 12:53:09;;;;;;;3.00;2.90;;;25.50;52.70;;;;;;5025538;28;20423;-82
2023/07/27 12:55:37;;;;;;;3.27;3.07;;;25.40;52.70;;;;;;5025341;28;20989;-84